createdAt,value
2019-05-22T00:00:46.908Z,97527.98
2019-05-22T00:03:19.932Z,97522.98
2019-05-22T00:05:50.358Z,97522.00
2019-05-22T00:08:20.841Z,97527.74
2019-05-22T00:10:50.800Z,97522.75
2019-05-22T00:13:23.275Z,97527.75
2019-05-22T00:15:54.851Z,97527.75
2019-05-22T00:18:26.052Z,97526.16
2019-05-22T00:20:57.821Z,97530.12
2019-05-22T00:23:28.883Z,97523.58
2019-05-22T00:25:58.677Z,97523.58
2019-05-22T00:28:28.385Z,97526.44
2019-05-22T00:30:59.301Z,97541.38
2019-05-22T00:33:30.159Z,97534.80
2019-05-22T00:36:00.412Z,97534.80
2019-05-22T00:38:31.893Z,97531.37
2019-05-22T00:41:03.702Z,97531.37
2019-05-22T00:43:39.689Z,97534.73
2019-05-22T00:46:12.473Z,97534.73
2019-05-22T00:48:44.481Z,97533.45
2019-05-22T00:51:32.532Z,97540.03
2019-05-22T00:54:11.432Z,97543.32
2019-05-22T00:56:51.752Z,97543.32
2019-05-22T00:59:27.257Z,97545.21
2019-05-22T01:02:02.610Z,97545.21
2019-05-22T01:04:38.429Z,97545.21
2019-05-22T01:07:12.709Z,97554.16
2019-05-22T01:09:44.665Z,97548.67
2019-05-22T01:12:22.136Z,97551.47
2019-05-22T01:14:53.517Z,97551.47
2019-05-22T01:17:24.531Z,97547.29
2019-05-22T01:19:54.744Z,97557.62
2019-05-22T01:22:26.664Z,97557.72
2019-05-22T01:24:57.248Z,97551.48
2019-05-22T01:27:29.652Z,97551.48
2019-05-22T01:30:00.421Z,97545.45
2019-05-22T01:32:45.889Z,97558.11
2019-05-22T01:35:16.807Z,97549.29
2019-05-22T01:37:47.140Z,97556.05
2019-05-22T01:40:27.169Z,97560.17
2019-05-22T01:42:59.273Z,97558.49
2019-05-22T01:45:29.853Z,97562.51
2019-05-22T01:48:02.835Z,97562.51
2019-05-22T01:50:51.516Z,97562.07
2019-05-22T01:53:24.331Z,97562.07
2019-05-22T01:56:00.045Z,97565.34
2019-05-22T01:58:31.787Z,97563.47
2019-05-22T02:01:03.579Z,97557.94
2019-05-22T02:03:37.072Z,97564.13
2019-05-22T02:06:07.461Z,97562.18
2019-05-22T02:08:41.892Z,97568.70
2019-05-22T02:11:13.137Z,97568.70
2019-05-22T02:13:46.450Z,97569.85
2019-05-22T02:16:17.197Z,97561.52
2019-05-22T02:18:49.669Z,97561.52
2019-05-22T02:21:20.298Z,97571.20
2019-05-22T02:23:50.058Z,97571.20
2019-05-22T02:26:20.113Z,97563.59
2019-05-22T02:28:51.242Z,97563.96
2019-05-22T02:31:23.607Z,97567.85
2019-05-22T02:34:03.894Z,97567.85
2019-05-22T02:36:35.146Z,97566.69
2019-05-22T02:39:10.889Z,97564.63
2019-05-22T02:41:44.896Z,97568.52
2019-05-22T02:44:15.014Z,97570.55
2019-05-22T02:46:45.045Z,97570.55
2019-05-22T02:49:14.875Z,97574.73
2019-05-22T02:51:45.787Z,97574.73
2019-05-22T02:54:30.069Z,97584.16
2019-05-22T02:56:59.898Z,97587.22
2019-05-22T02:59:31.607Z,97587.33
2019-05-22T03:02:02.338Z,97587.33
2019-05-22T03:04:54.966Z,97586.11
2019-05-22T03:07:25.912Z,97585.94
2019-05-22T03:09:55.713Z,97582.96
2019-05-22T03:12:28.817Z,97583.37
2019-05-22T03:14:58.462Z,97586.69
2019-05-22T03:17:31.145Z,97593.05
2019-05-22T03:20:04.511Z,97593.05
2019-05-22T03:22:40.877Z,97586.13
2019-05-22T03:25:16.331Z,97584.29
2019-05-22T03:27:48.129Z,97584.29
2019-05-22T03:30:21.604Z,97589.53
2019-05-22T03:32:52.349Z,97594.33
2019-05-22T03:35:22.716Z,97600.08
2019-05-22T03:37:53.466Z,97600.08
2019-05-22T03:40:23.221Z,97597.55
2019-05-22T03:42:52.997Z,97597.55
2019-05-22T03:45:23.746Z,97592.13
2019-05-22T03:47:54.402Z,97593.20
2019-05-22T03:50:26.726Z,97602.28
2019-05-22T03:52:58.169Z,97605.41
2019-05-22T03:55:28.187Z,97611.74
2019-05-22T03:57:58.018Z,97607.16
2019-05-22T04:00:29.376Z,97615.73
2019-05-22T04:02:59.192Z,97623.73
2019-05-22T04:05:29.570Z,97628.03
2019-05-22T04:08:00.316Z,97626.82
2019-05-22T04:10:35.106Z,97632.80
2019-05-22T04:13:06.620Z,97632.80
2019-05-22T04:15:36.670Z,97641.82
2019-05-22T04:18:16.604Z,97650.33
2019-05-22T04:20:46.945Z,97649.72
2019-05-22T04:23:16.917Z,97649.72
2019-05-22T04:25:47.146Z,97648.38
2019-05-22T04:28:17.132Z,97650.81
2019-05-22T04:30:48.263Z,97650.81
2019-05-22T04:33:18.296Z,97665.77
2019-05-22T04:35:49.096Z,97664.06
2019-05-22T04:38:18.924Z,97664.06
2019-05-22T04:40:49.987Z,97665.87
2019-05-22T04:43:21.560Z,97675.45
2019-05-22T04:45:51.998Z,97679.81
2019-05-22T04:48:22.080Z,97673.27
2019-05-22T04:50:53.436Z,97673.27
2019-05-22T04:53:23.327Z,97671.68
2019-05-22T04:55:53.413Z,97671.08
2019-05-22T04:58:26.801Z,97675.09
2019-05-22T05:00:57.140Z,97683.23
2019-05-22T05:03:27.268Z,97684.30
2019-05-22T05:05:57.654Z,97685.27
2019-05-22T05:08:30.233Z,97685.27
2019-05-22T05:11:03.180Z,97685.41
2019-05-22T05:13:33.050Z,97685.75
2019-05-22T05:16:03.178Z,97685.75
2019-05-22T05:18:33.309Z,97689.44
2019-05-22T05:21:03.384Z,97689.44
2019-05-22T05:23:33.635Z,97694.06
2019-05-22T05:26:03.390Z,97693.22
2019-05-22T05:28:33.737Z,97691.53
2019-05-22T05:31:06.185Z,97691.53
2019-05-22T05:33:54.170Z,97696.02
2019-05-22T05:36:23.808Z,97695.64
2019-05-22T05:38:53.922Z,97702.84
2019-05-22T05:41:23.533Z,97698.69
2019-05-22T05:43:53.580Z,97703.78
2019-05-22T05:46:23.269Z,97703.78
2019-05-22T05:48:54.751Z,97714.36
2019-05-22T05:51:25.956Z,97712.67
2019-05-22T05:53:59.897Z,97712.67
2019-05-22T05:56:30.489Z,97712.80
2019-05-22T05:59:00.787Z,97718.50
2019-05-22T06:01:33.487Z,97719.32
2019-05-22T06:04:04.199Z,97721.67
2019-05-22T06:07:17.100Z,97723.23
2019-05-22T06:09:48.533Z,97733.08
2019-05-22T06:12:19.308Z,97734.44
2019-05-22T06:14:49.482Z,97735.70
2019-05-22T06:17:57.587Z,97734.51
2019-05-22T06:20:27.746Z,97742.64
2019-05-22T06:23:42.568Z,97742.64
2019-05-22T06:26:15.585Z,97738.63
2019-05-22T06:28:47.168Z,97740.59
2019-05-22T06:31:24.740Z,97746.22
2019-05-22T06:33:54.945Z,97746.22
2019-05-22T06:36:27.126Z,97750.20
2019-05-22T06:39:03.663Z,97750.20
2019-05-22T06:41:35.652Z,97744.25
2019-05-22T06:44:37.149Z,97749.34
2019-05-22T06:47:13.685Z,97749.34
2019-05-22T06:49:46.798Z,97752.14
2019-05-22T06:52:17.239Z,97754.58
2019-05-22T06:54:47.043Z,97757.25
2019-05-22T06:57:23.165Z,97757.25
2019-05-22T07:00:11.267Z,97757.73
2019-05-22T07:02:25.033Z,97760.64
2019-05-22T07:04:54.601Z,97757.38
2019-05-22T07:07:29.851Z,97762.94
2019-05-22T07:10:00.453Z,97762.94
2019-05-22T07:12:30.953Z,97770.77
2019-05-22T07:15:50.510Z,97772.34
2019-05-22T07:18:29.989Z,97772.34
2019-05-22T07:21:00.161Z,97777.78
2019-05-22T07:23:30.770Z,97775.97
2019-05-22T07:26:01.124Z,97776.62
2019-05-22T07:28:31.497Z,97776.62
2019-05-22T07:31:01.583Z,97776.64
2019-05-22T07:33:31.752Z,97776.96
2019-05-22T07:36:12.210Z,97782.39
2019-05-22T07:38:33.676Z,97779.52
2019-05-22T07:41:04.011Z,97788.48
2019-05-22T07:43:34.111Z,97788.48
2019-05-22T07:46:03.841Z,97780.45
2019-05-22T07:48:33.690Z,97789.70
2019-05-22T07:51:05.809Z,97787.88
2019-05-22T07:53:35.836Z,97787.88
2019-05-22T07:56:08.858Z,97792.12
2019-05-22T07:58:39.258Z,97792.12
2019-05-22T08:01:09.765Z,97786.80
2019-05-22T08:03:39.643Z,97795.59
2019-05-22T08:06:12.733Z,97795.59
2019-05-22T08:08:43.212Z,97797.36
2019-05-22T08:11:32.622Z,97797.36
2019-05-22T08:14:04.584Z,97798.27
2019-05-22T08:16:34.409Z,97799.24
2019-05-22T08:19:04.145Z,97795.83
2019-05-22T08:21:36.589Z,97799.02
2019-05-22T08:24:07.303Z,97798.39
2019-05-22T08:26:53.131Z,97799.16
2019-05-22T08:31:38.160Z,97801.12
2019-05-22T08:34:08.283Z,97801.12
2019-05-22T08:36:38.841Z,97796.11
2019-05-22T08:39:11.010Z,97800.21
2019-05-22T08:41:42.718Z,97799.08
2019-05-22T08:44:16.937Z,97799.08
2019-05-22T08:46:46.101Z,97797.95
2019-05-22T08:49:15.597Z,97794.52
2019-05-22T08:51:45.673Z,97798.72
2019-05-22T08:54:16.717Z,97798.72
2019-05-22T08:56:49.759Z,97805.22
2019-05-22T08:59:20.447Z,97804.42
2019-05-22T09:01:50.844Z,97809.35
2019-05-22T09:04:21.237Z,97804.84
2019-05-22T09:06:50.787Z,97806.56
2019-05-22T09:09:21.055Z,97805.74
2019-05-22T09:11:50.622Z,97813.17
2019-05-22T09:14:21.734Z,97814.93
2019-05-22T09:16:52.154Z,97814.80
2019-05-22T09:19:22.251Z,97814.80
2019-05-22T09:21:52.421Z,97813.22
2019-05-22T09:24:23.918Z,97814.09
2019-05-22T09:26:53.419Z,97817.51
2019-05-22T09:29:25.038Z,97822.67
2019-05-22T09:31:56.443Z,97818.01
2019-05-22T09:34:27.513Z,97818.01
2019-05-22T09:36:57.182Z,97816.88
2019-05-22T09:39:26.857Z,97819.95
2019-05-22T09:41:56.997Z,97817.99
2019-05-22T09:44:28.358Z,97817.99
2019-05-22T09:46:58.003Z,97814.15
2019-05-22T09:49:27.719Z,97814.15
2019-05-22T09:51:59.144Z,97821.69
2019-05-22T09:54:28.712Z,97834.78
2019-05-22T09:57:00.601Z,97834.78
2019-05-22T09:59:30.864Z,97828.45
2019-05-22T10:02:01.741Z,97831.87
2019-05-22T10:04:32.697Z,97828.86
2019-05-22T10:07:02.714Z,97826.01
2019-05-22T10:09:32.562Z,97833.73
2019-05-22T10:12:03.145Z,97833.73
2019-05-22T10:14:33.643Z,97830.58
2019-05-22T10:17:07.863Z,97830.58
2019-05-22T10:19:37.885Z,97830.43
2019-05-22T10:22:08.753Z,97838.41
2019-05-22T10:24:38.553Z,97828.79
2019-05-22T10:27:09.300Z,97828.79
2019-05-22T10:29:39.220Z,97842.73
2019-05-22T10:32:10.162Z,97831.20
2019-05-22T10:34:39.762Z,97831.20
2019-05-22T10:37:16.686Z,97841.81
2019-05-22T10:39:50.367Z,97840.36
2019-05-22T10:42:20.095Z,97835.96
2019-05-22T10:44:50.566Z,97835.96
2019-05-22T10:47:20.334Z,97835.16
2019-05-22T10:49:50.028Z,97832.93
2019-05-22T10:52:19.835Z,97840.36
2019-05-22T10:54:49.500Z,97844.09
2019-05-22T10:57:19.825Z,97844.09
2019-05-22T10:59:49.917Z,97835.83
2019-05-22T11:02:19.788Z,97835.83
2019-05-22T11:04:49.837Z,97834.03
2019-05-22T11:07:22.054Z,97834.03
2019-05-22T11:09:52.041Z,97832.53
2019-05-22T11:12:21.888Z,97831.50
2019-05-22T11:14:52.219Z,97833.27
2019-05-22T11:17:22.095Z,97833.27
2019-05-22T11:19:51.685Z,97827.22
2019-05-22T11:22:21.382Z,97829.08
2019-05-22T11:24:51.158Z,97828.11
2019-05-22T11:27:20.884Z,97833.84
2019-05-22T11:29:50.677Z,97827.28
2019-05-22T11:32:21.095Z,97827.28
2019-05-22T11:34:51.230Z,97825.58
2019-05-22T11:37:21.576Z,97826.34
2019-05-22T11:39:54.225Z,97826.34
2019-05-22T11:42:24.450Z,97822.63
2019-05-22T11:44:53.971Z,97817.81
2019-05-22T11:47:23.659Z,97820.45
2019-05-22T11:49:53.228Z,97826.45
2019-05-22T11:52:23.032Z,97817.02
2019-05-22T11:54:52.655Z,97819.45
2019-05-22T11:57:22.665Z,97819.45
2019-05-22T11:59:53.131Z,97823.86
2019-05-22T12:02:24.341Z,97813.99
2019-05-22T12:04:54.266Z,97813.99
2019-05-22T12:07:24.587Z,97822.64
2019-05-22T12:09:54.640Z,97819.50
2019-05-22T12:12:24.833Z,97819.50
2019-05-22T12:14:54.557Z,97826.44
2019-05-22T12:17:38.078Z,97823.11
2019-05-22T12:20:05.206Z,97822.73
2019-05-22T12:22:37.682Z,97822.73
2019-05-22T12:25:07.539Z,97822.00
2019-05-22T12:27:39.514Z,97825.65
2019-05-22T12:30:09.243Z,97823.41
2019-05-22T12:32:40.404Z,97816.50
2019-05-22T12:35:10.271Z,97815.92
2019-05-22T12:37:41.772Z,97815.92
2019-05-22T12:40:17.369Z,97818.34
2019-05-22T12:42:47.332Z,97823.25
2019-05-22T12:45:25.272Z,97823.25
2019-05-22T12:50:31.270Z,97802.88
2019-05-22T12:53:02.535Z,97807.45
2019-05-22T12:55:32.674Z,97811.88
2019-05-22T12:58:02.514Z,97810.95
2019-05-22T13:00:33.795Z,97805.94
2019-05-22T13:03:08.008Z,97813.14
2019-05-22T13:05:45.604Z,97804.74
2019-05-22T13:08:15.325Z,97804.74
2019-05-22T13:10:46.445Z,97805.05
2019-05-22T13:13:16.435Z,97807.63
2019-05-22T13:15:46.426Z,97815.24
2019-05-22T13:18:18.122Z,97815.11
2019-05-22T13:20:48.390Z,97798.59
2019-05-22T13:23:18.386Z,97803.00
2019-05-22T13:25:50.265Z,97802.84
2019-05-22T13:28:20.033Z,97802.84
2019-05-22T13:30:53.051Z,97805.83
2019-05-22T13:33:25.246Z,97799.05
2019-05-22T13:35:57.782Z,97795.51
2019-05-22T13:38:28.151Z,97797.66
2019-05-22T13:40:58.508Z,97791.66
2019-05-22T13:43:30.152Z,97792.84
2019-05-22T13:46:00.120Z,97792.84
2019-05-22T13:48:29.969Z,97805.16
2019-05-22T13:51:00.277Z,97805.16
2019-05-22T13:53:30.279Z,97806.30
2019-05-22T13:56:00.437Z,97806.30
2019-05-22T13:58:33.810Z,97806.25
2019-05-22T23:00:48.748Z,97814.17
2019-05-22T23:03:22.081Z,97814.17
2019-05-22T23:05:52.825Z,97825.56
2019-05-22T23:08:25.525Z,97825.56
2019-05-22T23:10:58.212Z,97831.47
2019-05-22T23:13:28.598Z,97821.98
2019-05-22T23:15:59.188Z,97828.81
2019-05-22T23:19:07.142Z,97825.52
2019-05-22T23:21:36.285Z,97817.88
2019-05-22T23:24:05.407Z,97817.88
2019-05-22T23:26:35.608Z,97823.05
2019-05-22T23:29:08.885Z,97821.42
2019-05-22T23:31:40.559Z,97820.08
2019-05-22T23:34:11.736Z,97820.08
2019-05-22T23:36:41.615Z,97814.96
2019-05-22T23:39:13.111Z,97814.96
2019-05-22T23:41:43.324Z,97814.59
2019-05-22T23:44:13.770Z,97818.38
2019-05-22T23:46:44.043Z,97818.38
2019-05-22T23:49:14.268Z,97822.20
2019-05-22T23:51:44.706Z,97823.05
2019-05-22T23:54:14.876Z,97820.98
2019-05-22T23:56:44.999Z,97817.94
2019-05-22T23:59:16.877Z,97816.47
